Coraopolis, PA (15108)

2:10 PM EDT on August 28, 2016 (GMT -0400)
Tranquility Bade/Moon Twsp | | Change Station

Elev 1099 ft 40.50 °N, 80.17 °W | Updated 7 minutes ago

Mostly Cloudy
Mostly Cloudy
92.3 °F
Feels Like 109 °F
N
4.2
Wind Variable Wind from ENE

Today
High -- | Low -- °F
--% Chance of Precip.
Yesterday
High -- | Low -- °F
Precip. -- in
Pressure 30.21 in
Visibility 10.0 miles
Clouds Few 3200 ft
Scattered Clouds 14000 ft
Mostly Cloudy 23000 ft
Heat Index 109 °F
Dew Point 79 °F
Humidity 65%
Rainfall 0.00 in
Snow Depth Not available.
6:44 AM 7:58 PM
Waning Crescent, 14% visible
METAR KPIT 281751Z 00000KT 10SM FEW032 SCT140 BKN230 30/22 A3022 RMK AO2 SLP229 T03000217 10300 20228 58006
Pressure 30.21 in
Visibility 10.0 miles
Clouds Few 3200 ft
Scattered Clouds 14000 ft
Mostly Cloudy 23000 ft
Heat Index 109 °F
Dew Point 79 °F
Humidity 65%
Rainfall 0.00 in
Snow Depth Not available.
6:44 AM 7:58 PM
Waning Crescent, 14% visible
METAR KPIT 281751Z 00000KT 10SM FEW032 SCT140 BKN230 30/22 A3022 RMK AO2 SLP229 T03000217 10300 20228 58006

10-Day Weather Forecast

Almanac

Astronomy

Aug. 28, 2016 Rise Set
Actual Time
Civil Twilight
Nautical Twilight
Astronomical Twilight
Moon
Length of Visible Light
Length of Day
Tomorrow will be .
, % of the Moon is Illuminated

Today's Extremes

State Highs State Lows

Community

WunderPhotos

Upload Photos

1,935,642 photos uploaded!

WunderBlog® & News

Nearby

Air Quality

  Air Quality AQ Index Pollutant
Not available.

Snow Depth

Station Depth Elevation

Earthquake Activity

City Distance Mag. Time & Date
Minimum magnitude displayed is 2.5.

Coastal Water Temperatures

Place Temperature

Stations

Nearby Weather Stations

Station Location Temp. Windchill Dew Point Humidity Wind Precip. Elev Updated Type
                   

Watches & Warnings

There are currently no watches in effect.